sensor_id;sensor_type;location;lat;lon;timestamp;P1;durP1;ratioP1;P2;durP2;ratioP2
27213;SDS011;14723;55.814;37.460;2023-01-08T00:01:12;27.33;;;9.27;;
27213;SDS011;14723;55.814;37.460;2023-01-08T00:04:17;23.48;;;7.63;;
27213;SDS011;14723;55.814;37.460;2023-01-08T00:07:23;24.70;;;7.97;;
27213;SDS011;14723;55.814;37.460;2023-01-08T00:10:29;26.58;;;7.70;;
27213;SDS011;14723;55.814;37.460;2023-01-08T00:13:37;20.60;;;7.78;;
27213;SDS011;14723;55.814;37.460;2023-01-08T00:16:42;20.67;;;8.07;;
27213;SDS011;14723;55.814;37.460;2023-01-08T00:19:48;20.48;;;7.55;;
27213;SDS011;14723;55.814;37.460;2023-01-08T00:22:53;25.13;;;7.25;;
27213;SDS011;14723;55.814;37.460;2023-01-08T00:25:59;24.92;;;7.95;;
27213;SDS011;14723;55.814;37.460;2023-01-08T00:29:07;21.45;;;7.57;;
27213;SDS011;14723;55.814;37.460;2023-01-08T00:32:13;20.60;;;7.45;;
27213;SDS011;14723;55.814;37.460;2023-01-08T00:35:18;23.75;;;6.22;;
27213;SDS011;14723;55.814;37.460;2023-01-08T00:38:24;23.55;;;6.68;;
27213;SDS011;14723;55.814;37.460;2023-01-08T00:41:29;26.27;;;6.78;;
27213;SDS011;14723;55.814;37.460;2023-01-08T00:44:37;24.88;;;6.55;;
27213;SDS011;14723;55.814;37.460;2023-01-08T00:47:42;18.33;;;6.10;;
27213;SDS011;14723;55.814;37.460;2023-01-08T00:50:48;26.77;;;7.35;;
27213;SDS011;14723;55.814;37.460;2023-01-08T00:53:53;22.30;;;6.55;;
27213;SDS011;14723;55.814;37.460;2023-01-08T00:56:58;18.45;;;6.47;;
27213;SDS011;14723;55.814;37.460;2023-01-08T01:00:08;22.35;;;6.40;;
27213;SDS011;14723;55.814;37.460;2023-01-08T01:03:14;21.25;;;6.72;;
27213;SDS011;14723;55.814;37.460;2023-01-08T01:06:23;20.92;;;6.93;;
27213;SDS011;14723;55.814;37.460;2023-01-08T01:09:29;23.55;;;6.85;;
27213;SDS011;14723;55.814;37.460;2023-01-08T01:12:35;20.90;;;7.10;;
27213;SDS011;14723;55.814;37.460;2023-01-08T01:15:44;24.23;;;7.20;;
27213;SDS011;14723;55.814;37.460;2023-01-08T01:18:49;18.08;;;6.30;;
27213;SDS011;14723;55.814;37.460;2023-01-08T01:21:56;22.55;;;6.68;;
27213;SDS011;14723;55.814;37.460;2023-01-08T01:25:01;22.92;;;6.90;;
27213;SDS011;14723;55.814;37.460;2023-01-08T01:28:07;18.38;;;6.60;;
27213;SDS011;14723;55.814;37.460;2023-01-08T01:31:15;18.92;;;6.57;;
27213;SDS011;14723;55.814;37.460;2023-01-08T01:34:20;18.27;;;6.07;;
27213;SDS011;14723;55.814;37.460;2023-01-08T01:37:26;20.48;;;7.05;;
27213;SDS011;14723;55.814;37.460;2023-01-08T01:40:31;19.98;;;7.30;;
27213;SDS011;14723;55.814;37.460;2023-01-08T01:43:38;23.88;;;6.40;;
27213;SDS011;14723;55.814;37.460;2023-01-08T01:46:46;22.88;;;6.90;;
27213;SDS011;14723;55.814;37.460;2023-01-08T01:49:52;16.23;;;6.75;;
27213;SDS011;14723;55.814;37.460;2023-01-08T01:52:59;23.17;;;7.70;;
27213;SDS011;14723;55.814;37.460;2023-01-08T01:56:06;18.40;;;6.82;;
27213;SDS011;14723;55.814;37.460;2023-01-08T01:59:12;22.35;;;7.07;;
27213;SDS011;14723;55.814;37.460;2023-01-08T02:02:20;16.55;;;5.75;;
27213;SDS011;14723;55.814;37.460;2023-01-08T02:05:28;17.05;;;5.72;;
27213;SDS011;14723;55.814;37.460;2023-01-08T02:08:36;17.30;;;5.30;;
27213;SDS011;14723;55.814;37.460;2023-01-08T02:11:45;21.05;;;5.85;;
27213;SDS011;14723;55.814;37.460;2023-01-08T02:15:13;22.88;;;6.47;;
27213;SDS011;14723;55.814;37.460;2023-01-08T02:18:24;15.60;;;5.30;;
27213;SDS011;14723;55.814;37.460;2023-01-08T02:21:33;13.52;;;5.15;;
27213;SDS011;14723;55.814;37.460;2023-01-08T02:24:46;21.33;;;6.28;;
27213;SDS011;14723;55.814;37.460;2023-01-08T02:27:58;21.05;;;5.47;;
27213;SDS011;14723;55.814;37.460;2023-01-08T02:31:04;16.40;;;5.30;;
27213;SDS011;14723;55.814;37.460;2023-01-08T02:34:10;19.35;;;5.57;;
27213;SDS011;14723;55.814;37.460;2023-01-08T02:37:16;13.48;;;5.75;;
27213;SDS011;14723;55.814;37.460;2023-01-08T02:40:23;14.50;;;5.70;;
27213;SDS011;14723;55.814;37.460;2023-01-08T02:43:37;19.65;;;5.05;;
27213;SDS011;14723;55.814;37.460;2023-01-08T02:46:46;18.52;;;4.88;;
27213;SDS011;14723;55.814;37.460;2023-01-08T02:49:54;13.43;;;4.95;;
27213;SDS011;14723;55.814;37.460;2023-01-08T02:53:06;19.85;;;6.10;;
27213;SDS011;14723;55.814;37.460;2023-01-08T02:56:14;18.85;;;5.45;;
27213;SDS011;14723;55.814;37.460;2023-01-08T02:59:24;21.52;;;5.28;;
27213;SDS011;14723;55.814;37.460;2023-01-08T03:02:31;13.13;;;5.22;;
27213;SDS011;14723;55.814;37.460;2023-01-08T03:05:37;20.27;;;5.10;;
27213;SDS011;14723;55.814;37.460;2023-01-08T03:11:50;20.20;;;5.72;;
27213;SDS011;14723;55.814;37.460;2023-01-08T03:15:00;16.08;;;5.20;;
27213;SDS011;14723;55.814;37.460;2023-01-08T03:18:08;22.20;;;6.20;;
27213;SDS011;14723;55.814;37.460;2023-01-08T03:21:15;17.98;;;5.07;;
27213;SDS011;14723;55.814;37.460;2023-01-08T03:24:23;15.97;;;5.30;;
27213;SDS011;14723;55.814;37.460;2023-01-08T03:27:29;17.70;;;5.60;;
27213;SDS011;14723;55.814;37.460;2023-01-08T03:30:40;15.45;;;4.90;;
27213;SDS011;14723;55.814;37.460;2023-01-08T03:33:47;11.40;;;4.50;;
27213;SDS011;14723;55.814;37.460;2023-01-08T03:36:54;19.73;;;5.45;;
27213;SDS011;14723;55.814;37.460;2023-01-08T03:40:00;17.35;;;5.03;;
27213;SDS011;14723;55.814;37.460;2023-01-08T03:43:08;21.13;;;6.35;;
27213;SDS011;14723;55.814;37.460;2023-01-08T03:46:17;18.27;;;5.50;;
27213;SDS011;14723;55.814;37.460;2023-01-08T03:49:24;16.73;;;6.00;;
27213;SDS011;14723;55.814;37.460;2023-01-08T03:52:31;18.60;;;5.93;;
27213;SDS011;14723;55.814;37.460;2023-01-08T03:55:36;19.20;;;5.70;;
27213;SDS011;14723;55.814;37.460;2023-01-08T03:58:42;20.58;;;5.22;;
27213;SDS011;14723;55.814;37.460;2023-01-08T04:01:50;18.05;;;5.90;;
27213;SDS011;14723;55.814;37.460;2023-01-08T04:04:56;17.20;;;5.35;;
27213;SDS011;14723;55.814;37.460;2023-01-08T04:08:01;21.08;;;5.88;;
27213;SDS011;14723;55.814;37.460;2023-01-08T04:11:06;17.73;;;6.00;;
27213;SDS011;14723;55.814;37.460;2023-01-08T04:14:12;23.20;;;6.40;;
27213;SDS011;14723;55.814;37.460;2023-01-08T04:17:20;22.60;;;6.50;;
27213;SDS011;14723;55.814;37.460;2023-01-08T04:20:25;20.58;;;6.22;;
27213;SDS011;14723;55.814;37.460;2023-01-08T04:23:31;23.52;;;6.22;;
27213;SDS011;14723;55.814;37.460;2023-01-08T04:26:36;20.83;;;6.25;;
27213;SDS011;14723;55.814;37.460;2023-01-08T04:29:41;14.80;;;6.22;;
27213;SDS011;14723;55.814;37.460;2023-01-08T04:32:49;14.88;;;5.90;;
27213;SDS011;14723;55.814;37.460;2023-01-08T04:35:55;15.45;;;6.18;;
27213;SDS011;14723;55.814;37.460;2023-01-08T04:39:00;18.63;;;6.10;;
27213;SDS011;14723;55.814;37.460;2023-01-08T04:42:06;15.60;;;5.78;;
27213;SDS011;14723;55.814;37.460;2023-01-08T04:45:11;21.23;;;5.70;;
27213;SDS011;14723;55.814;37.460;2023-01-08T04:48:19;22.02;;;6.40;;
27213;SDS011;14723;55.814;37.460;2023-01-08T04:51:25;19.23;;;7.10;;
27213;SDS011;14723;55.814;37.460;2023-01-08T04:54:30;21.17;;;6.15;;
27213;SDS011;14723;55.814;37.460;2023-01-08T04:57:35;24.80;;;6.43;;
27213;SDS011;14723;55.814;37.460;2023-01-08T05:00:41;16.30;;;5.65;;
27213;SDS011;14723;55.814;37.460;2023-01-08T05:03:51;21.00;;;5.95;;
27213;SDS011;14723;55.814;37.460;2023-01-08T05:06:57;22.65;;;6.70;;
27213;SDS011;14723;55.814;37.460;2023-01-08T05:10:02;14.15;;;5.20;;
27213;SDS011;14723;55.814;37.460;2023-01-08T05:13:08;16.15;;;5.50;;
27213;SDS011;14723;55.814;37.460;2023-01-08T05:16:13;20.58;;;5.30;;
27213;SDS011;14723;55.814;37.460;2023-01-08T05:19:22;18.33;;;6.25;;
27213;SDS011;14723;55.814;37.460;2023-01-08T05:22:27;17.88;;;4.90;;
27213;SDS011;14723;55.814;37.460;2023-01-08T05:25:33;13.43;;;5.18;;
27213;SDS011;14723;55.814;37.460;2023-01-08T05:28:38;16.50;;;4.65;;
27213;SDS011;14723;55.814;37.460;2023-01-08T05:31:44;18.45;;;6.68;;
27213;SDS011;14723;55.814;37.460;2023-01-08T05:34:52;17.85;;;5.82;;
27213;SDS011;14723;55.814;37.460;2023-01-08T05:37:58;22.17;;;6.25;;
27213;SDS011;14723;55.814;37.460;2023-01-08T05:41:03;12.10;;;4.82;;
27213;SDS011;14723;55.814;37.460;2023-01-08T05:44:09;14.75;;;5.35;;
27213;SDS011;14723;55.814;37.460;2023-01-08T05:47:15;21.20;;;6.03;;
27213;SDS011;14723;55.814;37.460;2023-01-08T05:50:23;13.90;;;5.30;;
27213;SDS011;14723;55.814;37.460;2023-01-08T05:53:29;14.55;;;5.50;;
27213;SDS011;14723;55.814;37.460;2023-01-08T05:56:35;13.25;;;5.10;;
27213;SDS011;14723;55.814;37.460;2023-01-08T05:59:40;14.45;;;5.28;;
27213;SDS011;14723;55.814;37.460;2023-01-08T06:02:45;18.30;;;5.15;;
27213;SDS011;14723;55.814;37.460;2023-01-08T06:05:56;21.17;;;6.35;;
27213;SDS011;14723;55.814;37.460;2023-01-08T06:09:01;19.25;;;5.82;;
27213;SDS011;14723;55.814;37.460;2023-01-08T06:12:06;16.30;;;5.35;;
27213;SDS011;14723;55.814;37.460;2023-01-08T06:15:12;18.80;;;5.75;;
27213;SDS011;14723;55.814;37.460;2023-01-08T06:18:17;17.27;;;5.63;;
27213;SDS011;14723;55.814;37.460;2023-01-08T06:21:26;21.05;;;5.53;;
27213;SDS011;14723;55.814;37.460;2023-01-08T06:24:31;16.65;;;6.47;;
27213;SDS011;14723;55.814;37.460;2023-01-08T06:27:37;19.35;;;6.32;;
27213;SDS011;14723;55.814;37.460;2023-01-08T06:30:42;16.65;;;6.20;;
27213;SDS011;14723;55.814;37.460;2023-01-08T06:33:47;21.10;;;6.85;;
27213;SDS011;14723;55.814;37.460;2023-01-08T06:36:56;23.35;;;5.78;;
27213;SDS011;14723;55.814;37.460;2023-01-08T06:40:01;26.25;;;7.28;;
27213;SDS011;14723;55.814;37.460;2023-01-08T06:43:07;21.05;;;6.47;;
27213;SDS011;14723;55.814;37.460;2023-01-08T06:46:12;15.93;;;6.22;;
27213;SDS011;14723;55.814;37.460;2023-01-08T06:49:17;17.70;;;5.95;;
27213;SDS011;14723;55.814;37.460;2023-01-08T06:52:26;16.70;;;6.22;;
27213;SDS011;14723;55.814;37.460;2023-01-08T06:55:32;17.70;;;5.90;;
27213;SDS011;14723;55.814;37.460;2023-01-08T06:58:39;17.92;;;4.93;;
27213;SDS011;14723;55.814;37.460;2023-01-08T07:01:44;22.15;;;6.57;;
27213;SDS011;14723;55.814;37.460;2023-01-08T07:04:51;20.50;;;6.47;;
27213;SDS011;14723;55.814;37.460;2023-01-08T07:07:59;14.05;;;5.70;;
27213;SDS011;14723;55.814;37.460;2023-01-08T07:11:04;16.10;;;6.07;;
27213;SDS011;14723;55.814;37.460;2023-01-08T07:14:10;15.98;;;5.82;;
27213;SDS011;14723;55.814;37.460;2023-01-08T07:17:15;16.27;;;5.70;;
27213;SDS011;14723;55.814;37.460;2023-01-08T07:20:21;18.05;;;5.93;;
27213;SDS011;14723;55.814;37.460;2023-01-08T07:23:29;20.48;;;6.05;;
27213;SDS011;14723;55.814;37.460;2023-01-08T07:26:35;20.67;;;6.78;;
27213;SDS011;14723;55.814;37.460;2023-01-08T07:29:40;30.25;;;8.55;;
27213;SDS011;14723;55.814;37.460;2023-01-08T07:32:46;23.67;;;5.88;;
27213;SDS011;14723;55.814;37.460;2023-01-08T07:35:51;17.90;;;6.30;;
27213;SDS011;14723;55.814;37.460;2023-01-08T07:38:59;21.60;;;5.60;;
27213;SDS011;14723;55.814;37.460;2023-01-08T07:42:05;21.33;;;5.75;;
27213;SDS011;14723;55.814;37.460;2023-01-08T07:45:10;16.85;;;6.35;;
27213;SDS011;14723;55.814;37.460;2023-01-08T07:48:16;19.67;;;6.93;;
27213;SDS011;14723;55.814;37.460;2023-01-08T07:51:21;18.10;;;5.88;;
27213;SDS011;14723;55.814;37.460;2023-01-08T07:54:29;20.52;;;5.80;;
27213;SDS011;14723;55.814;37.460;2023-01-08T07:57:34;14.07;;;5.72;;
27213;SDS011;14723;55.814;37.460;2023-01-08T08:00:40;14.88;;;5.97;;
27213;SDS011;14723;55.814;37.460;2023-01-08T08:03:45;18.80;;;6.57;;
27213;SDS011;14723;55.814;37.460;2023-01-08T08:06:51;19.05;;;5.95;;
27213;SDS011;14723;55.814;37.460;2023-01-08T08:10:00;15.10;;;5.93;;
27213;SDS011;14723;55.814;37.460;2023-01-08T08:13:06;16.55;;;6.10;;
27213;SDS011;14723;55.814;37.460;2023-01-08T08:16:11;22.20;;;6.57;;
27213;SDS011;14723;55.814;37.460;2023-01-08T08:19:17;20.20;;;6.93;;
27213;SDS011;14723;55.814;37.460;2023-01-08T08:22:22;25.92;;;7.28;;
27213;SDS011;14723;55.814;37.460;2023-01-08T08:25:30;23.63;;;7.13;;
27213;SDS011;14723;55.814;37.460;2023-01-08T08:28:36;17.80;;;6.90;;
27213;SDS011;14723;55.814;37.460;2023-01-08T08:31:41;16.98;;;6.20;;
27213;SDS011;14723;55.814;37.460;2023-01-08T08:34:46;20.67;;;6.80;;
27213;SDS011;14723;55.814;37.460;2023-01-08T08:37:52;24.85;;;7.35;;
27213;SDS011;14723;55.814;37.460;2023-01-08T08:41:01;21.27;;;6.95;;
27213;SDS011;14723;55.814;37.460;2023-01-08T08:44:06;19.15;;;7.65;;
27213;SDS011;14723;55.814;37.460;2023-01-08T08:47:11;18.83;;;6.68;;
27213;SDS011;14723;55.814;37.460;2023-01-08T08:50:17;25.05;;;7.95;;
27213;SDS011;14723;55.814;37.460;2023-01-08T08:53:22;23.60;;;6.90;;
27213;SDS011;14723;55.814;37.460;2023-01-08T08:56:31;20.30;;;7.55;;
27213;SDS011;14723;55.814;37.460;2023-01-08T08:59:36;20.02;;;6.50;;
27213;SDS011;14723;55.814;37.460;2023-01-08T09:02:42;22.20;;;7.15;;
27213;SDS011;14723;55.814;37.460;2023-01-08T09:05:47;24.70;;;7.65;;
27213;SDS011;14723;55.814;37.460;2023-01-08T09:08:52;21.95;;;7.85;;
27213;SDS011;14723;55.814;37.460;2023-01-08T09:12:01;19.05;;;7.82;;
27213;SDS011;14723;55.814;37.460;2023-01-08T09:15:09;19.13;;;6.68;;
27213;SDS011;14723;55.814;37.460;2023-01-08T09:18:15;22.13;;;7.67;;
27213;SDS011;14723;55.814;37.460;2023-01-08T09:21:20;24.88;;;7.07;;
27213;SDS011;14723;55.814;37.460;2023-01-08T09:24:26;19.02;;;7.75;;
27213;SDS011;14723;55.814;37.460;2023-01-08T09:27:35;22.42;;;7.78;;
27213;SDS011;14723;55.814;37.460;2023-01-08T09:30:41;24.27;;;8.50;;
27213;SDS011;14723;55.814;37.460;2023-01-08T09:33:47;22.13;;;7.13;;
27213;SDS011;14723;55.814;37.460;2023-01-08T09:36:52;23.38;;;8.27;;
27213;SDS011;14723;55.814;37.460;2023-01-08T09:39:58;26.95;;;8.65;;
27213;SDS011;14723;55.814;37.460;2023-01-08T09:43:08;21.15;;;7.38;;
27213;SDS011;14723;55.814;37.460;2023-01-08T09:46:19;31.17;;;9.00;;
27213;SDS011;14723;55.814;37.460;2023-01-08T09:49:28;21.20;;;8.77;;
27213;SDS011;14723;55.814;37.460;2023-01-08T09:52:37;22.65;;;9.32;;
27213;SDS011;14723;55.814;37.460;2023-01-08T09:55:45;20.33;;;7.97;;
27213;SDS011;14723;55.814;37.460;2023-01-08T09:59:14;20.88;;;7.68;;
27213;SDS011;14723;55.814;37.460;2023-01-08T10:02:21;23.00;;;8.80;;
27213;SDS011;14723;55.814;37.460;2023-01-08T10:05:30;24.63;;;9.05;;
27213;SDS011;14723;55.814;37.460;2023-01-08T10:08:35;28.77;;;8.77;;
27213;SDS011;14723;55.814;37.460;2023-01-08T10:11:42;24.63;;;8.32;;
27213;SDS011;14723;55.814;37.460;2023-01-08T10:17:58;32.28;;;9.13;;
27213;SDS011;14723;55.814;37.460;2023-01-08T10:21:04;24.75;;;9.15;;
27213;SDS011;14723;55.814;37.460;2023-01-08T10:24:10;28.17;;;9.60;;
27213;SDS011;14723;55.814;37.460;2023-01-08T10:27:17;29.27;;;9.32;;
27213;SDS011;14723;55.814;37.460;2023-01-08T10:30:33;21.95;;;9.02;;
27213;SDS011;14723;55.814;37.460;2023-01-08T10:33:41;29.45;;;8.88;;
27213;SDS011;14723;55.814;37.460;2023-01-08T10:36:47;25.65;;;9.23;;
27213;SDS011;14723;55.814;37.460;2023-01-08T10:39:53;30.73;;;10.13;;
27213;SDS011;14723;55.814;37.460;2023-01-08T10:43:04;28.58;;;9.13;;
27213;SDS011;14723;55.814;37.460;2023-01-08T10:46:11;28.80;;;8.57;;
27213;SDS011;14723;55.814;37.460;2023-01-08T10:49:26;28.08;;;8.90;;
27213;SDS011;14723;55.814;37.460;2023-01-08T10:52:33;26.80;;;9.07;;
27213;SDS011;14723;55.814;37.460;2023-01-08T10:55:38;24.58;;;9.98;;
27213;SDS011;14723;55.814;37.460;2023-01-08T10:58:44;24.73;;;9.32;;
27213;SDS011;14723;55.814;37.460;2023-01-08T11:01:50;24.38;;;9.30;;
27213;SDS011;14723;55.814;37.460;2023-01-08T11:04:59;28.85;;;9.35;;
27213;SDS011;14723;55.814;37.460;2023-01-08T11:08:06;25.75;;;9.43;;
27213;SDS011;14723;55.814;37.460;2023-01-08T11:11:12;28.83;;;10.48;;
27213;SDS011;14723;55.814;37.460;2023-01-08T11:14:18;25.80;;;9.48;;
27213;SDS011;14723;55.814;37.460;2023-01-08T11:20:33;24.13;;;9.55;;
27213;SDS011;14723;55.814;37.460;2023-01-08T11:23:38;26.27;;;8.43;;
27213;SDS011;14723;55.814;37.460;2023-01-08T11:26:44;25.52;;;9.75;;
27213;SDS011;14723;55.814;37.460;2023-01-08T11:29:52;28.92;;;9.65;;
27213;SDS011;14723;55.814;37.460;2023-01-08T11:36:08;25.25;;;9.02;;
27213;SDS011;14723;55.814;37.460;2023-01-08T11:39:15;32.38;;;9.18;;
27213;SDS011;14723;55.814;37.460;2023-01-08T11:42:35;26.00;;;9.95;;
27213;SDS011;14723;55.814;37.460;2023-01-08T11:45:47;29.27;;;10.27;;
27213;SDS011;14723;55.814;37.460;2023-01-08T11:48:58;21.48;;;9.13;;
27213;SDS011;14723;55.814;37.460;2023-01-08T11:52:18;28.15;;;9.57;;
27213;SDS011;14723;55.814;37.460;2023-01-08T11:55:31;29.73;;;10.52;;
27213;SDS011;14723;55.814;37.460;2023-01-08T11:58:46;28.35;;;9.95;;
27213;SDS011;14723;55.814;37.460;2023-01-08T12:01:57;23.35;;;8.45;;
27213;SDS011;14723;55.814;37.460;2023-01-08T12:05:17;25.63;;;9.98;;
27213;SDS011;14723;55.814;37.460;2023-01-08T12:08:28;28.05;;;9.55;;
27213;SDS011;14723;55.814;37.460;2023-01-08T12:11:40;23.10;;;8.82;;
27213;SDS011;14723;55.814;37.460;2023-01-08T12:14:51;24.48;;;8.35;;
27213;SDS011;14723;55.814;37.460;2023-01-08T12:18:04;30.23;;;9.20;;
27213;SDS011;14723;55.814;37.460;2023-01-08T12:21:13;33.70;;;9.73;;
27213;SDS011;14723;55.814;37.460;2023-01-08T12:24:25;24.42;;;9.70;;
27213;SDS011;14723;55.814;37.460;2023-01-08T12:27:38;23.80;;;9.48;;
27213;SDS011;14723;55.814;37.460;2023-01-08T12:31:07;27.42;;;9.48;;
27213;SDS011;14723;55.814;37.460;2023-01-08T12:34:16;27.45;;;8.57;;
27213;SDS011;14723;55.814;37.460;2023-01-08T12:37:25;30.40;;;9.82;;
27213;SDS011;14723;55.814;37.460;2023-01-08T12:40:34;29.55;;;10.40;;
27213;SDS011;14723;55.814;37.460;2023-01-08T12:43:44;29.83;;;9.10;;
27213;SDS011;14723;55.814;37.460;2023-01-08T12:46:55;21.77;;;8.23;;
27213;SDS011;14723;55.814;37.460;2023-01-08T12:50:06;24.15;;;9.18;;
27213;SDS011;14723;55.814;37.460;2023-01-08T12:53:16;24.25;;;9.38;;
27213;SDS011;14723;55.814;37.460;2023-01-08T12:56:26;27.55;;;9.27;;
27213;SDS011;14723;55.814;37.460;2023-01-08T12:59:36;32.38;;;10.45;;
27213;SDS011;14723;55.814;37.460;2023-01-08T13:02:49;39.65;;;10.55;;
27213;SDS011;14723;55.814;37.460;2023-01-08T13:06:06;26.80;;;10.05;;
27213;SDS011;14723;55.814;37.460;2023-01-08T13:09:14;28.17;;;10.95;;
27213;SDS011;14723;55.814;37.460;2023-01-08T13:12:34;34.53;;;10.65;;
27213;SDS011;14723;55.814;37.460;2023-01-08T13:15:40;28.38;;;10.07;;
27213;SDS011;14723;55.814;37.460;2023-01-08T13:18:52;22.95;;;9.38;;
27213;SDS011;14723;55.814;37.460;2023-01-08T13:21:58;23.33;;;8.77;;
27213;SDS011;14723;55.814;37.460;2023-01-08T13:25:08;30.55;;;9.73;;
27213;SDS011;14723;55.814;37.460;2023-01-08T13:28:24;23.55;;;9.40;;
27213;SDS011;14723;55.814;37.460;2023-01-08T13:31:36;26.40;;;9.30;;
27213;SDS011;14723;55.814;37.460;2023-01-08T13:34:42;32.22;;;10.55;;
27213;SDS011;14723;55.814;37.460;2023-01-08T13:37:48;22.33;;;8.88;;
27213;SDS011;14723;55.814;37.460;2023-01-08T13:40:54;24.90;;;8.13;;
27213;SDS011;14723;55.814;37.460;2023-01-08T13:44:03;27.98;;;8.80;;
27213;SDS011;14723;55.814;37.460;2023-01-08T13:47:15;25.02;;;9.98;;
27213;SDS011;14723;55.814;37.460;2023-01-08T13:50:21;27.17;;;9.55;;
27213;SDS011;14723;55.814;37.460;2023-01-08T13:53:28;24.27;;;9.32;;
27213;SDS011;14723;55.814;37.460;2023-01-08T13:56:34;28.92;;;9.32;;
27213;SDS011;14723;55.814;37.460;2023-01-08T13:59:47;27.48;;;9.02;;
27213;SDS011;14723;55.814;37.460;2023-01-08T14:02:53;23.92;;;8.95;;
27213;SDS011;14723;55.814;37.460;2023-01-08T14:06:05;30.85;;;8.77;;
27213;SDS011;14723;55.814;37.460;2023-01-08T14:09:13;23.35;;;9.20;;
27213;SDS011;14723;55.814;37.460;2023-01-08T14:12:21;28.08;;;9.82;;
27213;SDS011;14723;55.814;37.460;2023-01-08T14:15:31;24.38;;;10.05;;
27213;SDS011;14723;55.814;37.460;2023-01-08T14:18:38;31.83;;;8.85;;
27213;SDS011;14723;55.814;37.460;2023-01-08T14:21:45;30.40;;;9.40;;
27213;SDS011;14723;55.814;37.460;2023-01-08T14:24:52;31.33;;;10.03;;
27213;SDS011;14723;55.814;37.460;2023-01-08T14:31:16;20.70;;;7.47;;
27213;SDS011;14723;55.814;37.460;2023-01-08T14:34:23;25.63;;;8.88;;
27213;SDS011;14723;55.814;37.460;2023-01-08T14:37:30;32.60;;;9.23;;
27213;SDS011;14723;55.814;37.460;2023-01-08T14:40:36;32.00;;;9.38;;
27213;SDS011;14723;55.814;37.460;2023-01-08T14:43:43;27.80;;;8.05;;
27213;SDS011;14723;55.814;37.460;2023-01-08T14:46:53;19.10;;;8.20;;
27213;SDS011;14723;55.814;37.460;2023-01-08T14:49:59;24.20;;;9.07;;
27213;SDS011;14723;55.814;37.460;2023-01-08T14:53:05;21.85;;;8.00;;
27213;SDS011;14723;55.814;37.460;2023-01-08T14:56:11;30.45;;;9.00;;
27213;SDS011;14723;55.814;37.460;2023-01-08T14:59:18;24.25;;;7.65;;
27213;SDS011;14723;55.814;37.460;2023-01-08T15:02:27;23.38;;;8.85;;
27213;SDS011;14723;55.814;37.460;2023-01-08T15:05:34;26.00;;;7.72;;
27213;SDS011;14723;55.814;37.460;2023-01-08T15:08:40;22.65;;;9.00;;
27213;SDS011;14723;55.814;37.460;2023-01-08T15:11:47;29.30;;;9.25;;
27213;SDS011;14723;55.814;37.460;2023-01-08T15:14:54;27.33;;;10.35;;
27213;SDS011;14723;55.814;37.460;2023-01-08T15:18:02;33.67;;;10.07;;
27213;SDS011;14723;55.814;37.460;2023-01-08T15:21:08;41.97;;;11.60;;
27213;SDS011;14723;55.814;37.460;2023-01-08T15:24:19;32.30;;;12.40;;
27213;SDS011;14723;55.814;37.460;2023-01-08T15:27:25;34.25;;;11.43;;
27213;SDS011;14723;55.814;37.460;2023-01-08T15:30:33;27.40;;;11.05;;
27213;SDS011;14723;55.814;37.460;2023-01-08T15:33:41;33.25;;;10.90;;
27213;SDS011;14723;55.814;37.460;2023-01-08T15:36:48;37.42;;;11.15;;
27213;SDS011;14723;55.814;37.460;2023-01-08T15:39:54;37.47;;;11.57;;
27213;SDS011;14723;55.814;37.460;2023-01-08T15:42:59;36.45;;;11.95;;
27213;SDS011;14723;55.814;37.460;2023-01-08T15:46:13;32.95;;;13.05;;
27213;SDS011;14723;55.814;37.460;2023-01-08T15:49:22;39.65;;;12.70;;
27213;SDS011;14723;55.814;37.460;2023-01-08T15:52:27;30.38;;;11.00;;
27213;SDS011;14723;55.814;37.460;2023-01-08T15:55:33;28.00;;;10.75;;
27213;SDS011;14723;55.814;37.460;2023-01-08T15:58:38;33.13;;;10.82;;
27213;SDS011;14723;55.814;37.460;2023-01-08T16:01:43;30.88;;;11.25;;
27213;SDS011;14723;55.814;37.460;2023-01-08T16:04:52;35.20;;;12.88;;
27213;SDS011;14723;55.814;37.460;2023-01-08T16:07:58;36.65;;;11.05;;
27213;SDS011;14723;55.814;37.460;2023-01-08T16:11:04;41.30;;;13.07;;
27213;SDS011;14723;55.814;37.460;2023-01-08T16:14:10;34.22;;;12.57;;
27213;SDS011;14723;55.814;37.460;2023-01-08T16:17:16;38.53;;;12.95;;
27213;SDS011;14723;55.814;37.460;2023-01-08T16:20:24;43.83;;;13.30;;
27213;SDS011;14723;55.814;37.460;2023-01-08T16:23:29;32.05;;;12.15;;
27213;SDS011;14723;55.814;37.460;2023-01-08T16:26:35;37.80;;;12.60;;
27213;SDS011;14723;55.814;37.460;2023-01-08T16:29:40;31.70;;;11.30;;
27213;SDS011;14723;55.814;37.460;2023-01-08T16:32:49;33.80;;;12.07;;
27213;SDS011;14723;55.814;37.460;2023-01-08T16:35:58;38.38;;;13.23;;
27213;SDS011;14723;55.814;37.460;2023-01-08T16:39:04;25.67;;;10.82;;
27213;SDS011;14723;55.814;37.460;2023-01-08T16:42:09;34.38;;;11.52;;
27213;SDS011;14723;55.814;37.460;2023-01-08T16:45:15;33.08;;;11.68;;
27213;SDS011;14723;55.814;37.460;2023-01-08T16:48:20;29.52;;;9.90;;
27213;SDS011;14723;55.814;37.460;2023-01-08T16:51:28;29.17;;;8.75;;
27213;SDS011;14723;55.814;37.460;2023-01-08T16:54:35;28.20;;;9.35;;
27213;SDS011;14723;55.814;37.460;2023-01-08T16:57:40;23.10;;;8.35;;
27213;SDS011;14723;55.814;37.460;2023-01-08T17:00:46;27.77;;;8.00;;
27213;SDS011;14723;55.814;37.460;2023-01-08T17:03:52;25.33;;;7.88;;
27213;SDS011;14723;55.814;37.460;2023-01-08T17:07:03;23.80;;;8.32;;
27213;SDS011;14723;55.814;37.460;2023-01-08T17:10:09;29.40;;;8.70;;
27213;SDS011;14723;55.814;37.460;2023-01-08T17:13:15;30.10;;;8.85;;
27213;SDS011;14723;55.814;37.460;2023-01-08T17:16:20;29.35;;;9.02;;
27213;SDS011;14723;55.814;37.460;2023-01-08T17:19:26;23.98;;;8.45;;
27213;SDS011;14723;55.814;37.460;2023-01-08T17:22:35;24.95;;;8.90;;
27213;SDS011;14723;55.814;37.460;2023-01-08T17:25:40;29.15;;;8.52;;
27213;SDS011;14723;55.814;37.460;2023-01-08T17:28:46;33.33;;;9.50;;
27213;SDS011;14723;55.814;37.460;2023-01-08T17:31:51;26.00;;;9.35;;
27213;SDS011;14723;55.814;37.460;2023-01-08T17:34:57;24.00;;;8.98;;
27213;SDS011;14723;55.814;37.460;2023-01-08T17:38:05;23.73;;;9.35;;
27213;SDS011;14723;55.814;37.460;2023-01-08T17:41:10;31.30;;;8.90;;
27213;SDS011;14723;55.814;37.460;2023-01-08T17:44:36;28.42;;;9.77;;
27213;SDS011;14723;55.814;37.460;2023-01-08T17:47:41;32.90;;;9.75;;
27213;SDS011;14723;55.814;37.460;2023-01-08T17:50:46;41.78;;;11.30;;
27213;SDS011;14723;55.814;37.460;2023-01-08T17:53:55;38.08;;;11.25;;
27213;SDS011;14723;55.814;37.460;2023-01-08T17:57:00;27.20;;;10.73;;
27213;SDS011;14723;55.814;37.460;2023-01-08T18:00:06;25.33;;;9.05;;
27213;SDS011;14723;55.814;37.460;2023-01-08T18:03:12;28.83;;;9.52;;
27213;SDS011;14723;55.814;37.460;2023-01-08T18:06:17;31.65;;;10.23;;
27213;SDS011;14723;55.814;37.460;2023-01-08T18:09:26;38.70;;;11.63;;
27213;SDS011;14723;55.814;37.460;2023-01-08T18:12:31;31.15;;;9.35;;
27213;SDS011;14723;55.814;37.460;2023-01-08T18:15:36;31.17;;;9.90;;
27213;SDS011;14723;55.814;37.460;2023-01-08T18:18:42;22.33;;;8.85;;
27213;SDS011;14723;55.814;37.460;2023-01-08T18:21:47;32.03;;;10.73;;
27213;SDS011;14723;55.814;37.460;2023-01-08T18:24:55;32.58;;;10.65;;
27213;SDS011;14723;55.814;37.460;2023-01-08T18:28:00;38.63;;;12.63;;